Impacts METAR Board
IDs:

KATT - Austin/Camp Mabry(NG, TX, US

Updated at: 0300 UTC 18 Jan 2022
Potential Impact None Slight Moderate High
Time 17/15Z 17/16Z 17/17Z 17/18Z 17/19Z 17/20Z 17/21Z 17/22Z 17/23Z 18/00Z 18/01Z 18/02Z 18/03Z
Temp44 50 54 59 62 64 67 68 67 62 60 55 53
Dewpt25 24 23 23 22 21 22 24 23 22 22 24 24
Altim30.18 30.20 30.20 30.18 30.14 30.11 30.09 30.08 30.06 30.05 30.06 30.07 30.08
VIS10 10 10 10 10 10 10 10 10 10 10 10 10
CIG-- -- -- -- -- -- -- -- -- -- -- -- --
CoverCLRCLRCLRCLRCLRCLRCLRCLRCLRCLRCLRCLRCLR
FltCatVFRVFRVFRVFRVFRVFRVFRVFRVFRVFRVFRVFRVFR
WX--------------------------
WDir3400000000016015000
WSpd3 3 0 0 3 0 0 3 4 4 4 0 0
WGst-- -- -- -- -- -- -- -- -- -- -- -- --
Raw hourly METARs
KATT 171451Z AUTO 34003KT 10SM CLR 07/M04 A3018 RMK AO2 SLP223 T00671039 51018
KATT 171551Z AUTO VRB03KT 10SM CLR 10/M04 A3020 RMK AO2 SLP228 T01001044
KATT 171651Z AUTO 00000KT 10SM CLR 12/M05 A3020 RMK AO2 SLP231 T01221050
KATT 171751Z AUTO 00000KT 10SM CLR 15/M05 A3018 RMK AO2 SLP222 T01501050 10150 20011 50001
KATT 171851Z AUTO VRB03KT 10SM CLR 17/M06 A3014 RMK AO2 SLP208 T01671056
KATT 171951Z AUTO 00000KT 10SM CLR 18/M06 A3011 RMK AO2 SLP196 T01781061
KATT 172051Z AUTO 00000KT 10SM CLR 19/M06 A3009 RMK AO2 SLP187 T01941056 56032
KATT 172151Z AUTO VRB03KT 10SM CLR 20/M04 A3008 RMK AO2 SLP186 T02001044
KATT 172251Z AUTO VRB04KT 10SM CLR 19/M05 A3006 RMK AO2 SLP180 T01941050
KATT 172351Z AUTO 16004KT 10SM CLR 17/M06 A3005 RMK AO2 SLP179 T01671056 10200 20150 57011
KATT 180051Z AUTO 15004KT 10SM CLR 16/M06 A3006 RMK AO2 SLP183 T01561056
KATT 180151Z AUTO 00000KT 10SM CLR 13/M04 A3007 RMK AO2 SLP187 T01281044
KATT 180251Z AUTO 00000KT 10SM CLR 12/M04 A3008 RMK AO2 SLP188 T01171044 53008